createdAt,value
2023-04-14T00:02:07.399Z,17.48
2023-04-14T00:04:36.116Z,14.38
2023-04-14T00:07:05.030Z,13.38
2023-04-14T00:09:33.742Z,60.63
2023-04-14T00:12:02.232Z,7.00
2023-04-14T00:14:32.494Z,6.78
2023-04-14T00:17:01.004Z,11.30
2023-04-14T00:19:29.535Z,11.95
2023-04-14T00:21:58.198Z,12.25
2023-04-14T00:24:26.656Z,15.43
2023-04-14T00:26:55.096Z,10.77
2023-04-14T00:29:23.830Z,46.42
2023-04-14T00:31:53.841Z,44.78
2023-04-14T00:34:22.509Z,15.95
2023-04-14T00:36:50.922Z,7.47
2023-04-14T00:39:19.640Z,7.32
2023-04-14T00:41:48.068Z,7.65
2023-04-14T00:44:16.622Z,6.18
2023-04-14T00:46:45.368Z,6.07
2023-04-14T00:49:17.037Z,6.80
2023-04-14T00:51:48.096Z,5.10
2023-04-14T00:54:24.432Z,5.47
2023-04-14T00:56:55.099Z,7.53
2023-04-14T00:59:23.607Z,7.22
2023-04-14T01:01:52.186Z,9.27
2023-04-14T01:04:22.738Z,29.08
2023-04-14T01:06:51.276Z,54.13
2023-04-14T01:09:20.057Z,57.30
2023-04-14T01:12:03.157Z,40.10
2023-04-14T01:14:42.806Z,36.10
2023-04-14T01:20:24.289Z,70.28
2023-04-14T01:23:01.036Z,15.88
2023-04-14T01:26:12.362Z,6.25
2023-04-14T01:29:18.397Z,5.93
2023-04-14T01:31:50.581Z,6.03
2023-04-14T01:34:34.418Z,5.18
2023-04-14T01:37:08.375Z,12.55
2023-04-14T01:39:40.847Z,12.90
2023-04-14T01:42:14.688Z,9.80
2023-04-14T01:44:43.748Z,7.68
2023-04-14T01:47:16.909Z,8.15
2023-04-14T01:49:47.823Z,11.05
2023-04-14T01:52:18.598Z,6.78
2023-04-14T01:54:51.698Z,13.57
2023-04-14T01:57:23.055Z,6.20
2023-04-14T01:59:54.494Z,4.75
2023-04-14T02:02:25.754Z,4.80
2023-04-14T02:04:57.507Z,5.28
2023-04-14T02:07:27.849Z,7.90
2023-04-14T02:09:59.120Z,5.97
2023-04-14T02:12:29.527Z,5.20
2023-04-14T02:15:01.178Z,5.15
2023-04-14T02:17:32.315Z,5.15
2023-04-14T02:20:02.082Z,6.13
2023-04-14T02:22:30.557Z,4.70
2023-04-14T02:24:58.995Z,5.05
2023-04-14T02:27:32.670Z,4.93
2023-04-14T02:30:08.569Z,5.28
2023-04-14T02:32:42.783Z,4.73
2023-04-14T02:35:16.886Z,5.20
2023-04-14T02:37:53.287Z,5.10
2023-04-14T02:40:28.090Z,5.38
2023-04-14T02:43:05.959Z,7.85
2023-04-14T02:45:36.824Z,5.57
2023-04-14T02:48:14.515Z,5.05
2023-04-14T02:50:49.024Z,4.70
2023-04-14T02:53:22.367Z,5.68
2023-04-14T02:55:52.679Z,5.18
2023-04-14T02:58:22.425Z,5.77
2023-04-14T03:00:53.063Z,6.25
2023-04-14T03:03:24.922Z,4.93
2023-04-14T03:05:53.429Z,7.43
2023-04-14T03:08:22.458Z,7.07
2023-04-14T03:10:53.118Z,4.37
2023-04-14T03:13:24.104Z,6.10
2023-04-14T03:15:54.270Z,4.95
2023-04-14T03:18:25.594Z,5.38
2023-04-14T03:20:56.106Z,4.28
2023-04-14T03:23:26.671Z,7.67
2023-04-14T03:25:56.322Z,6.20
2023-04-14T03:28:27.655Z,4.82
2023-04-14T03:30:56.776Z,6.35
2023-04-14T03:33:30.350Z,5.40
2023-04-14T03:35:59.475Z,9.97
2023-04-14T03:38:30.685Z,5.40
2023-04-14T03:41:04.244Z,4.82
2023-04-14T03:43:34.628Z,5.20
2023-04-14T03:46:05.499Z,5.80
2023-04-14T03:48:42.460Z,4.87
2023-04-14T03:51:13.269Z,4.93
2023-04-14T03:53:44.169Z,4.47
2023-04-14T03:56:14.761Z,6.07
2023-04-14T03:58:47.814Z,4.60
2023-04-14T04:01:16.705Z,10.80
2023-04-14T04:03:48.492Z,15.57
2023-04-14T04:06:17.325Z,11.70
2023-04-14T04:08:47.843Z,7.93
2023-04-14T04:11:19.140Z,9.02
2023-04-14T04:13:49.986Z,6.67
2023-04-14T04:16:19.409Z,10.23
2023-04-14T04:18:50.767Z,10.65
2023-04-14T04:21:21.003Z,12.02
2023-04-14T04:23:55.098Z,12.80
2023-04-14T04:26:25.286Z,12.77
2023-04-14T04:28:55.971Z,15.95
2023-04-14T04:31:25.786Z,13.90
2023-04-14T04:33:56.249Z,17.10
2023-04-14T04:36:25.854Z,13.77
2023-04-14T04:38:54.394Z,9.90
2023-04-14T04:41:24.013Z,10.55
2023-04-14T04:43:52.799Z,14.68
2023-04-14T04:46:44.121Z,11.98
2023-04-14T04:49:14.073Z,7.85
2023-04-14T04:51:42.553Z,10.67
2023-04-14T04:54:11.141Z,16.38
2023-04-14T04:56:39.707Z,9.30
2023-04-14T04:59:08.397Z,11.02
2023-04-14T05:01:37.200Z,11.88
2023-04-14T05:04:06.952Z,9.43
2023-04-14T05:06:38.861Z,14.90
2023-04-14T05:09:07.705Z,10.07
2023-04-14T05:11:36.555Z,10.55
2023-04-14T05:14:05.076Z,8.43
2023-04-14T05:16:33.638Z,11.37
2023-04-14T05:19:03.298Z,9.75
2023-04-14T05:21:32.067Z,10.85
2023-04-14T05:24:02.350Z,9.68
2023-04-14T05:26:51.655Z,8.10
2023-04-14T05:29:20.240Z,7.20
2023-04-14T05:31:49.085Z,10.80
2023-04-14T05:34:17.609Z,7.18
2023-04-14T05:36:46.278Z,6.72
2023-04-14T05:39:16.212Z,8.60
2023-04-14T05:41:44.667Z,10.50
2023-04-14T05:44:13.118Z,8.50
2023-04-14T05:46:41.697Z,10.65
2023-04-14T05:49:10.746Z,9.63
2023-04-14T05:51:39.649Z,8.43
2023-04-14T05:54:08.446Z,11.40
2023-04-14T05:56:38.770Z,8.07
2023-04-14T05:59:07.201Z,9.40
2023-04-14T06:01:35.648Z,6.43
2023-04-14T06:04:04.660Z,8.63
2023-04-14T06:06:33.636Z,7.40
2023-04-14T06:09:02.257Z,8.55
2023-04-14T06:11:30.893Z,11.63
2023-04-14T06:14:02.171Z,11.15
2023-04-14T06:16:31.004Z,9.02
2023-04-14T06:18:59.836Z,15.63
2023-04-14T06:21:28.556Z,9.15
2023-04-14T06:23:57.054Z,6.97
2023-04-14T06:26:26.382Z,14.27
2023-04-14T06:28:56.779Z,9.55
2023-04-14T06:31:26.711Z,13.63
2023-04-14T06:33:55.324Z,12.13
2023-04-14T06:36:23.792Z,9.52
2023-04-14T06:38:52.241Z,6.88
2023-04-14T06:41:20.733Z,13.20
2023-04-14T06:43:49.177Z,11.00
2023-04-14T06:46:18.221Z,9.43
2023-04-14T06:48:48.049Z,8.52
2023-04-14T06:51:16.801Z,14.13
2023-04-14T06:53:45.317Z,13.32
2023-04-14T06:56:13.828Z,11.23
2023-04-14T06:58:42.335Z,14.82
2023-04-14T07:01:11.282Z,11.60
2023-04-14T07:03:40.425Z,11.10
2023-04-14T07:06:12.756Z,10.25
2023-04-14T07:08:41.225Z,7.30
2023-04-14T07:11:11.922Z,11.27
2023-04-14T07:13:41.549Z,13.27
2023-04-14T07:19:00.146Z,12.90
2023-04-14T07:21:30.322Z,13.27
2023-04-14T07:23:58.907Z,12.95
2023-04-14T07:26:28.039Z,12.30
2023-04-14T07:28:57.956Z,7.90
2023-04-14T07:31:26.872Z,8.88
2023-04-14T07:33:55.435Z,12.10
2023-04-14T07:36:23.946Z,14.30
2023-04-14T07:38:53.984Z,9.40
2023-04-14T07:41:22.468Z,8.73
2023-04-14T07:43:51.465Z,10.38
2023-04-14T07:46:19.996Z,8.17
2023-04-14T07:48:48.789Z,8.40
2023-04-14T07:51:17.544Z,5.53
2023-04-14T07:53:46.123Z,8.85
2023-04-14T07:56:16.764Z,12.88
2023-04-14T07:58:45.753Z,8.63
2023-04-14T08:01:14.291Z,7.60
2023-04-14T08:03:45.182Z,10.75
2023-04-14T08:06:14.122Z,7.75
2023-04-14T08:08:44.490Z,9.57
2023-04-14T08:11:12.943Z,10.00
2023-04-14T08:13:44.882Z,7.72
2023-04-14T08:16:13.841Z,8.48
2023-04-14T08:18:42.614Z,9.00
2023-04-14T08:21:12.212Z,8.05
2023-04-14T08:23:41.015Z,6.53
2023-04-14T08:26:09.526Z,6.78
2023-04-14T08:28:38.212Z,7.90
2023-04-14T08:31:08.144Z,8.05
2023-04-14T08:33:36.619Z,6.15
2023-04-14T08:36:05.689Z,6.37
2023-04-14T08:38:34.171Z,5.53
2023-04-14T08:41:05.726Z,5.43
2023-04-14T08:43:34.684Z,7.03
2023-04-14T08:46:06.370Z,7.72
2023-04-14T08:48:39.827Z,7.37
2023-04-14T08:51:20.210Z,7.20
2023-04-14T08:53:51.602Z,4.78
2023-04-14T08:56:22.598Z,5.13
2023-04-14T08:58:51.566Z,8.25
2023-04-14T09:01:20.426Z,4.37
2023-04-14T09:03:50.932Z,9.45
2023-04-14T09:06:20.972Z,5.72
2023-04-14T09:08:49.444Z,5.50
2023-04-14T09:11:18.283Z,6.65
2023-04-14T09:13:48.858Z,4.07
2023-04-14T09:16:18.597Z,8.57
2023-04-14T09:18:50.308Z,8.60
2023-04-14T09:21:49.344Z,4.05
2023-04-14T09:24:11.068Z,6.30
2023-04-14T09:26:40.587Z,5.07
2023-04-14T09:29:09.318Z,7.57
2023-04-14T09:31:38.225Z,4.55
2023-04-14T09:34:18.472Z,7.18
2023-04-14T09:37:03.653Z,7.72
2023-04-14T09:39:32.644Z,4.80
2023-04-14T09:42:01.760Z,8.10
2023-04-14T09:44:30.431Z,7.28
2023-04-14T09:47:00.870Z,4.95
2023-04-14T09:49:31.178Z,3.90
2023-04-14T09:52:08.276Z,4.90
2023-04-14T09:54:37.701Z,4.15
2023-04-14T09:57:06.588Z,4.88
2023-04-14T09:59:36.917Z,5.25
2023-04-14T10:02:07.895Z,7.07
2023-04-14T10:04:39.093Z,4.93
2023-04-14T10:07:10.794Z,5.95
2023-04-14T10:09:40.878Z,4.90
2023-04-14T10:12:12.762Z,5.95
2023-04-14T10:14:42.043Z,5.63
2023-04-14T10:17:12.115Z,5.30
2023-04-14T10:19:42.172Z,6.68
2023-04-14T10:22:11.334Z,6.28
2023-04-14T10:24:40.098Z,5.80
2023-04-14T10:27:08.761Z,6.63
2023-04-14T10:29:37.452Z,6.23
2023-04-14T10:32:08.992Z,5.07
2023-04-14T10:34:42.756Z,5.45
2023-04-14T10:37:15.200Z,4.20
2023-04-14T10:39:44.484Z,6.38
2023-04-14T10:42:13.021Z,6.43
2023-04-14T10:44:41.514Z,5.22
2023-04-14T10:47:10.230Z,4.47
2023-04-14T10:49:42.178Z,6.35
2023-04-14T10:52:34.707Z,6.38
2023-04-14T10:55:08.896Z,5.37
2023-04-14T10:57:44.893Z,5.15
2023-04-14T11:00:27.605Z,6.15
2023-04-14T11:02:58.861Z,5.35
2023-04-14T11:05:28.897Z,4.95
2023-04-14T11:08:02.230Z,4.30
2023-04-14T11:10:34.665Z,5.20
2023-04-14T11:13:07.171Z,4.32
2023-04-14T11:15:46.751Z,5.63
2023-04-14T11:18:17.807Z,5.18
2023-04-14T11:20:48.132Z,5.97
2023-04-14T11:23:17.144Z,5.28
2023-04-14T11:25:46.042Z,4.68
2023-04-14T11:28:14.500Z,5.57
2023-04-14T11:30:44.646Z,4.13
2023-04-14T11:33:16.340Z,4.83
2023-04-14T11:35:45.157Z,5.10
2023-04-14T11:38:16.423Z,6.93
2023-04-14T11:40:50.969Z,6.20
2023-04-14T11:43:22.206Z,4.22
2023-04-14T11:45:53.679Z,4.63
2023-04-14T11:48:22.235Z,4.80
2023-04-14T11:50:50.686Z,6.05
2023-04-14T11:53:21.298Z,8.93
2023-04-14T11:55:51.993Z,6.72
2023-04-14T11:58:24.705Z,4.20
2023-04-14T12:00:55.961Z,4.20
2023-04-14T12:03:29.676Z,6.38
2023-04-14T12:06:00.713Z,4.57
2023-04-14T12:08:34.440Z,6.57
2023-04-14T12:11:14.535Z,5.20
2023-04-14T12:13:43.515Z,4.20
2023-04-14T12:16:12.583Z,4.75
2023-04-14T12:18:41.803Z,7.05
2023-04-14T12:21:11.891Z,7.97
2023-04-14T12:23:42.453Z,6.70
2023-04-14T12:26:12.615Z,5.97
2023-04-14T12:28:42.066Z,4.57
2023-04-14T12:31:11.981Z,5.82
2023-04-14T12:33:40.834Z,5.47
2023-04-14T12:36:13.922Z,6.37
2023-04-14T12:38:43.812Z,4.03
2023-04-14T12:41:12.537Z,6.53
2023-04-14T12:43:41.818Z,5.55
2023-04-14T12:46:10.669Z,5.75
2023-04-14T12:48:58.658Z,5.50
2023-04-14T12:51:27.188Z,3.88
2023-04-14T12:54:09.279Z,8.23
2023-04-14T12:56:43.317Z,6.28
2023-04-14T12:59:12.033Z,4.95
2023-04-14T13:01:40.506Z,4.50
2023-04-14T13:04:09.116Z,6.82
2023-04-14T13:06:38.956Z,7.88
2023-04-14T13:09:08.848Z,6.93
2023-04-14T13:11:37.336Z,7.20
2023-04-14T13:14:05.971Z,5.33
2023-04-14T13:16:34.674Z,11.02
2023-04-14T13:19:03.693Z,4.57
2023-04-14T13:21:32.698Z,5.13
2023-04-14T13:24:01.168Z,7.13
2023-04-14T13:26:31.080Z,4.63
2023-04-14T13:28:59.839Z,4.43
2023-04-14T13:31:28.668Z,5.50
2023-04-14T13:33:57.411Z,6.72
2023-04-14T13:36:27.665Z,5.85
2023-04-14T13:38:57.458Z,5.00
2023-04-14T13:41:27.113Z,4.88
2023-04-14T13:43:57.405Z,4.00
2023-04-14T13:46:25.948Z,6.15
2023-04-14T13:48:54.881Z,4.38
2023-04-14T13:51:24.274Z,6.67
2023-04-14T13:53:55.941Z,7.55
2023-04-14T13:56:25.919Z,4.97
2023-04-14T13:58:55.976Z,5.97
2023-04-14T14:01:24.700Z,7.38
2023-04-14T14:03:53.417Z,6.13
2023-04-14T14:06:22.018Z,4.43
2023-04-14T14:09:05.305Z,5.57
2023-04-14T14:11:35.474Z,4.38
2023-04-14T14:14:05.524Z,4.88
2023-04-14T14:16:36.937Z,14.10
2023-04-14T14:19:08.506Z,9.70
2023-04-14T14:21:37.069Z,9.43
2023-04-14T14:24:05.602Z,7.00
2023-04-14T14:26:34.051Z,8.80
2023-04-14T14:29:04.055Z,5.17
2023-04-14T14:31:32.937Z,8.93
2023-04-14T14:34:01.765Z,4.57
2023-04-14T14:36:31.651Z,5.30
2023-04-14T14:39:00.379Z,6.07
2023-04-14T14:41:29.086Z,8.00
2023-04-14T14:43:59.089Z,6.85
2023-04-14T14:46:29.254Z,11.35
2023-04-14T14:48:58.013Z,9.15
2023-04-14T14:51:27.707Z,8.63
2023-04-14T14:54:08.945Z,5.40
2023-04-14T14:56:38.643Z,8.68
2023-04-14T14:59:08.707Z,10.68
2023-04-14T15:01:38.578Z,5.45
2023-04-14T15:04:07.870Z,5.00
2023-04-14T15:06:37.592Z,4.47
2023-04-14T15:09:06.714Z,5.43
2023-04-14T15:11:35.512Z,5.13
2023-04-14T15:14:04.220Z,4.10
2023-04-14T15:16:33.362Z,4.85
2023-04-14T15:19:03.628Z,4.80
2023-04-14T15:21:33.134Z,4.53
2023-04-14T15:24:02.245Z,5.18
2023-04-14T15:26:30.851Z,4.45
2023-04-14T15:28:59.481Z,6.55
2023-04-14T15:31:27.994Z,4.37
2023-04-14T15:34:00.254Z,3.85
2023-04-14T15:36:31.599Z,5.40
2023-04-14T15:39:00.337Z,6.70
2023-04-14T15:41:28.802Z,3.83
2023-04-14T15:43:57.506Z,5.17
2023-04-14T15:46:27.364Z,4.32
2023-04-14T15:48:55.937Z,3.70
2023-04-14T15:51:24.589Z,4.18
2023-04-14T15:53:54.559Z,4.25
2023-04-14T15:56:23.742Z,5.33
2023-04-14T15:58:52.258Z,5.35
2023-04-14T16:01:20.899Z,5.57
2023-04-14T16:03:51.995Z,3.60
2023-04-14T16:06:21.636Z,7.45
2023-04-14T16:08:50.086Z,10.43
2023-04-14T16:11:20.296Z,7.38
2023-04-14T16:13:48.975Z,5.10
2023-04-14T16:16:18.015Z,4.43
2023-04-14T16:18:46.749Z,5.00
2023-04-14T16:21:15.772Z,4.90
2023-04-14T16:23:45.143Z,6.93
2023-04-14T16:26:13.595Z,6.43
2023-04-14T16:28:43.680Z,5.97
2023-04-14T16:31:12.201Z,3.72
2023-04-14T16:33:40.647Z,6.53
2023-04-14T16:36:09.334Z,3.97
2023-04-14T16:38:37.764Z,5.70
2023-04-14T16:41:06.584Z,5.03
2023-04-14T16:43:35.030Z,4.18
2023-04-14T16:46:07.118Z,5.63
2023-04-14T16:48:37.156Z,5.78
2023-04-14T16:51:06.717Z,6.13
2023-04-14T16:53:36.171Z,4.32
2023-04-14T16:56:05.625Z,6.15
2023-04-14T16:58:34.165Z,5.40
2023-04-14T17:01:04.129Z,6.55
2023-04-14T17:03:32.753Z,5.18
2023-04-14T17:06:01.342Z,10.30
2023-04-14T17:08:30.044Z,4.78
2023-04-14T17:10:58.628Z,5.73
2023-04-14T17:13:28.001Z,7.15
2023-04-14T17:16:07.759Z,4.07
2023-04-14T17:18:39.221Z,3.65
2023-04-14T17:21:08.093Z,7.10
2023-04-14T17:23:37.876Z,4.60
2023-04-14T17:26:06.975Z,6.03
2023-04-14T17:28:35.864Z,4.07
2023-04-14T17:31:09.775Z,4.40
2023-04-14T17:33:39.770Z,4.88
2023-04-14T17:36:09.781Z,5.90
2023-04-14T17:38:38.754Z,6.38
2023-04-14T17:41:10.401Z,5.72
2023-04-14T17:43:41.524Z,5.82
2023-04-14T17:46:10.918Z,4.68
2023-04-14T17:48:41.035Z,5.50
2023-04-14T17:51:09.593Z,6.68
2023-04-14T17:53:38.189Z,7.70
2023-04-14T17:56:07.580Z,4.28
2023-04-14T17:58:36.280Z,4.35
2023-04-14T18:01:05.783Z,6.47
2023-04-14T18:03:34.784Z,3.50
2023-04-14T18:06:04.899Z,4.75
2023-04-14T18:08:33.363Z,6.28
2023-04-14T18:11:01.843Z,4.70
2023-04-14T18:13:30.648Z,6.37
2023-04-14T18:15:59.367Z,6.22
2023-04-14T18:18:27.800Z,3.53
2023-04-14T18:20:56.233Z,5.05
2023-04-14T18:23:26.139Z,3.85
2023-04-14T18:28:32.826Z,4.72
2023-04-14T18:31:01.741Z,4.10
2023-04-14T18:33:31.064Z,4.75
2023-04-14T18:36:00.453Z,6.43
2023-04-14T18:38:30.401Z,6.33
2023-04-14T18:41:03.596Z,4.90
2023-04-14T18:43:32.681Z,9.00
2023-04-14T18:46:02.257Z,3.95
2023-04-14T18:48:30.751Z,4.15
2023-04-14T18:51:02.056Z,4.50
2023-04-14T18:53:32.227Z,5.22
2023-04-14T18:56:00.745Z,5.40
2023-04-14T18:58:30.398Z,4.80
2023-04-14T19:00:59.057Z,5.43
2023-04-14T19:03:28.622Z,4.57
2023-04-14T19:05:57.127Z,3.70
2023-04-14T19:08:25.975Z,5.13
2023-04-14T19:10:55.835Z,4.68
2023-04-14T19:13:24.507Z,4.22
2023-04-14T19:15:53.157Z,6.60
2023-04-14T19:18:21.728Z,3.88
2023-04-14T19:20:50.210Z,4.57
2023-04-14T19:23:19.531Z,5.25
2023-04-14T19:25:48.953Z,6.07
2023-04-14T19:28:18.764Z,5.47
2023-04-14T19:30:47.489Z,4.25
2023-04-14T19:33:16.471Z,3.88
2023-04-14T19:35:45.292Z,4.72
2023-04-14T19:38:14.687Z,6.38
2023-04-14T19:40:48.240Z,6.40
2023-04-14T19:43:18.445Z,5.38
2023-04-14T19:45:54.263Z,5.72
2023-04-14T19:48:24.288Z,5.15
2023-04-14T19:50:54.798Z,5.18
2023-04-14T19:53:24.810Z,4.43
2023-04-14T19:55:55.881Z,3.83
2023-04-14T19:58:27.024Z,8.18
2023-04-14T20:00:57.676Z,5.10
2023-04-14T20:03:27.436Z,5.05
2023-04-14T20:05:57.947Z,5.60
2023-04-14T20:08:27.787Z,5.05
2023-04-14T20:10:56.525Z,5.80
2023-04-14T20:13:30.704Z,8.18
2023-04-14T20:15:59.145Z,8.07
2023-04-14T20:18:28.928Z,6.40
2023-04-14T20:20:57.617Z,7.68
2023-04-14T20:23:26.769Z,8.15
2023-04-14T20:25:56.190Z,9.85
2023-04-14T20:28:26.621Z,5.75
2023-04-14T20:30:56.337Z,7.27
2023-04-14T20:33:25.095Z,6.60
2023-04-14T20:35:54.275Z,4.97
2023-04-14T20:38:23.772Z,6.78
2023-04-14T20:40:52.264Z,7.65
2023-04-14T20:43:20.914Z,4.97
2023-04-14T20:45:53.161Z,5.85
2023-04-14T20:48:21.853Z,5.10
2023-04-14T20:50:50.846Z,6.50
2023-04-14T20:53:23.104Z,5.65
2023-04-14T20:55:51.525Z,7.37
2023-04-14T20:58:19.946Z,3.83
2023-04-14T21:00:49.232Z,5.85
2023-04-14T21:03:19.251Z,5.68
2023-04-14T21:05:48.156Z,6.78
2023-04-14T21:08:16.975Z,6.90
2023-04-14T21:11:14.438Z,5.03
2023-04-14T21:15:40.417Z,4.80
2023-04-14T21:16:22.410Z,5.13
2023-04-14T21:18:52.276Z,4.97
2023-04-14T21:21:20.727Z,7.20
2023-04-14T21:23:49.147Z,7.05
2023-04-14T21:26:18.053Z,4.50
2023-04-14T21:28:46.703Z,5.80
2023-04-14T21:31:15.898Z,5.03
2023-04-14T21:33:44.371Z,7.93
2023-04-14T21:36:14.576Z,4.57
2023-04-14T21:38:43.497Z,4.78
2023-04-14T21:41:12.239Z,5.00
2023-04-14T21:43:40.931Z,6.70
2023-04-14T21:46:10.073Z,4.37
2023-04-14T21:48:38.597Z,6.95
2023-04-14T21:51:07.750Z,5.05
2023-04-14T21:53:38.110Z,5.55
2023-04-14T21:56:10.261Z,4.00
2023-04-14T21:58:40.383Z,4.73
2023-04-14T22:01:10.174Z,7.10
2023-04-14T22:03:41.785Z,4.40
2023-04-14T22:06:11.660Z,6.60
2023-04-14T22:08:42.312Z,7.10
2023-04-14T22:11:11.032Z,4.80
2023-04-14T22:13:39.660Z,4.55
2023-04-14T22:16:11.468Z,5.60
2023-04-14T22:18:40.331Z,7.28
2023-04-14T22:21:12.176Z,5.75
2023-04-14T22:23:43.595Z,5.37
2023-04-14T22:26:13.473Z,7.20
2023-04-14T22:28:42.544Z,7.60
2023-04-14T22:31:11.108Z,4.18
2023-04-14T22:33:39.648Z,4.85
2023-04-14T22:36:09.708Z,7.20
2023-04-14T22:38:38.222Z,4.70
2023-04-14T22:41:08.137Z,5.20
2023-04-14T22:43:36.604Z,5.05
2023-04-14T22:46:05.478Z,4.38
2023-04-14T22:48:34.285Z,5.20
2023-04-14T22:51:02.728Z,5.20
2023-04-14T22:53:31.456Z,6.93
2023-04-14T22:55:59.899Z,4.80
2023-04-14T22:58:32.121Z,6.03
2023-04-14T23:01:06.446Z,5.63
2023-04-14T23:03:41.449Z,4.90
2023-04-14T23:06:10.071Z,4.68
2023-04-14T23:08:38.960Z,5.25
2023-04-14T23:11:08.290Z,5.70
2023-04-14T23:13:38.202Z,6.50
2023-04-14T23:16:07.858Z,4.38
2023-04-14T23:18:36.463Z,5.20
2023-04-14T23:21:05.522Z,5.00
2023-04-14T23:23:33.972Z,6.35
2023-04-14T23:26:02.411Z,5.87
2023-04-14T23:28:30.876Z,4.97
2023-04-14T23:31:01.004Z,5.45
2023-04-14T23:33:29.516Z,4.13
2023-04-14T23:35:58.232Z,4.28
2023-04-14T23:38:26.722Z,5.00
2023-04-14T23:40:59.132Z,4.63
2023-04-14T23:43:29.697Z,4.55
2023-04-14T23:45:58.266Z,4.55
2023-04-14T23:48:28.536Z,5.55
2023-04-14T23:51:00.869Z,3.93
2023-04-14T23:53:43.729Z,4.80
2023-04-14T23:56:12.331Z,6.03
2023-04-14T23:58:40.834Z,4.57
